sensor_id;sensor_type;location;lat;lon;timestamp;pressure;altitude;pressure_sealevel;temperature;humidity
76311;BME280;65120;59.304;18.294;2023-10-31T00:00:21;99669.06;;;8.85;83.35
76311;BME280;65120;59.304;18.294;2023-10-31T00:02:50;99674.16;;;8.88;83.52
76311;BME280;65120;59.304;18.294;2023-10-31T00:05:17;99685.47;;;8.88;83.38
76311;BME280;65120;59.304;18.294;2023-10-31T00:07:43;99685.41;;;8.90;83.01
76311;BME280;65120;59.304;18.294;2023-10-31T00:10:10;99681.94;;;8.91;83.44
76311;BME280;65120;59.304;18.294;2023-10-31T00:12:37;99677.50;;;8.93;83.07
76311;BME280;65120;59.304;18.294;2023-10-31T00:15:05;99659.44;;;8.87;82.79
76311;BME280;65120;59.304;18.294;2023-10-31T00:17:32;99666.22;;;8.94;82.90
76311;BME280;65120;59.304;18.294;2023-10-31T00:20:01;99662.72;;;8.93;82.86
76311;BME280;65120;59.304;18.294;2023-10-31T00:22:28;99662.63;;;8.96;83.15
76311;BME280;65120;59.304;18.294;2023-10-31T00:24:55;99653.09;;;8.97;83.00
76311;BME280;65120;59.304;18.294;2023-10-31T00:27:22;99657.34;;;8.99;82.69
76311;BME280;65120;59.304;18.294;2023-10-31T00:29:49;99654.75;;;8.99;82.88
76311;BME280;65120;59.304;18.294;2023-10-31T00:32:16;99647.88;;;8.97;82.80
76311;BME280;65120;59.304;18.294;2023-10-31T00:34:42;99647.78;;;9.00;82.60
76311;BME280;65120;59.304;18.294;2023-10-31T00:37:11;99654.59;;;9.04;82.41
76311;BME280;65120;59.304;18.294;2023-10-31T00:39:37;99649.47;;;9.01;82.42
76311;BME280;65120;59.304;18.294;2023-10-31T00:42:05;99657.19;;;9.04;82.72
76311;BME280;65120;59.304;18.294;2023-10-31T00:44:32;99657.16;;;9.06;82.43
76311;BME280;65120;59.304;18.294;2023-10-31T00:46:59;99658.00;;;9.06;82.16
76311;BME280;65120;59.304;18.294;2023-10-31T00:49:26;99657.09;;;9.07;82.27
76311;BME280;65120;59.304;18.294;2023-10-31T00:51:52;99658.00;;;9.06;81.92
76311;BME280;65120;59.304;18.294;2023-10-31T00:54:21;99655.41;;;9.06;81.94
76311;BME280;65120;59.304;18.294;2023-10-31T00:56:47;99653.66;;;9.07;82.36
76311;BME280;65120;59.304;18.294;2023-10-31T00:59:14;99648.44;;;9.07;82.11
76311;BME280;65120;59.304;18.294;2023-10-31T01:01:42;99650.13;;;9.08;81.81
76311;BME280;65120;59.304;18.294;2023-10-31T01:04:09;99649.28;;;9.07;81.70
76311;BME280;65120;59.304;18.294;2023-10-31T01:06:40;99649.28;;;9.07;81.79
76311;BME280;65120;59.304;18.294;2023-10-31T01:09:07;99644.94;;;9.08;81.64
76311;BME280;65120;59.304;18.294;2023-10-31T01:11:35;99651.00;;;9.08;81.97
76311;BME280;65120;59.304;18.294;2023-10-31T01:14:03;99649.28;;;9.07;81.62
76311;BME280;65120;59.304;18.294;2023-10-31T01:16:30;99651.91;;;9.07;81.62
76311;BME280;65120;59.304;18.294;2023-10-31T01:18:56;99648.41;;;9.08;81.57
76311;BME280;65120;59.304;18.294;2023-10-31T01:21:24;99646.69;;;9.07;81.60
76311;BME280;65120;59.304;18.294;2023-10-31T01:23:50;99645.81;;;9.08;81.74
76311;BME280;65120;59.304;18.294;2023-10-31T01:26:17;99644.06;;;9.07;81.47
76311;BME280;65120;59.304;18.294;2023-10-31T01:28:45;99644.94;;;9.08;81.58
76311;BME280;65120;59.304;18.294;2023-10-31T01:31:12;99650.19;;;9.06;81.42
76311;BME280;65120;59.304;18.294;2023-10-31T01:33:39;99640.72;;;9.04;81.72
76311;BME280;65120;59.304;18.294;2023-10-31T01:36:07;99650.13;;;9.08;81.39
76311;BME280;65120;59.304;18.294;2023-10-31T01:38:35;99648.44;;;9.07;81.60
76311;BME280;65120;59.304;18.294;2023-10-31T01:41:02;99638.88;;;9.07;81.58
76311;BME280;65120;59.304;18.294;2023-10-31T01:43:30;99628.50;;;9.06;81.55
76311;BME280;65120;59.304;18.294;2023-10-31T01:45:58;99626.75;;;9.06;81.60
76311;BME280;65120;59.304;18.294;2023-10-31T01:48:25;99626.75;;;9.06;81.73
76311;BME280;65120;59.304;18.294;2023-10-31T01:50:54;99626.75;;;9.06;81.79
76311;BME280;65120;59.304;18.294;2023-10-31T01:53:22;99625.00;;;9.07;81.57
76311;BME280;65120;59.304;18.294;2023-10-31T01:55:50;99621.53;;;9.06;81.24
76311;BME280;65120;59.304;18.294;2023-10-31T01:58:19;99616.34;;;9.06;81.51
76311;BME280;65120;59.304;18.294;2023-10-31T02:00:46;99614.66;;;9.05;81.35
76311;BME280;65120;59.304;18.294;2023-10-31T02:03:14;99625.06;;;9.05;81.70
76311;BME280;65120;59.304;18.294;2023-10-31T02:05:42;99614.66;;;9.05;81.38
76311;BME280;65120;59.304;18.294;2023-10-31T02:08:08;99612.88;;;9.06;81.52
76311;BME280;65120;59.304;18.294;2023-10-31T02:10:35;99609.59;;;8.99;81.42
76311;BME280;65120;59.304;18.294;2023-10-31T02:13:10;99610.28;;;9.06;81.50
76311;BME280;65120;59.304;18.294;2023-10-31T02:15:37;99613.75;;;9.05;81.43
76311;BME280;65120;59.304;18.294;2023-10-31T02:18:04;99603.41;;;9.03;81.45
76311;BME280;65120;59.304;18.294;2023-10-31T02:20:32;99609.44;;;9.05;81.35
76311;BME280;65120;59.304;18.294;2023-10-31T02:23:01;99610.31;;;9.04;81.56
76311;BME280;65120;59.304;18.294;2023-10-31T02:25:28;99606.84;;;9.04;81.54
76311;BME280;65120;59.304;18.294;2023-10-31T02:27:55;99613.72;;;9.06;81.24
76311;BME280;65120;59.304;18.294;2023-10-31T02:30:22;99609.44;;;9.05;81.67
76311;BME280;65120;59.304;18.294;2023-10-31T02:32:49;99605.06;;;9.06;81.28
76311;BME280;65120;59.304;18.294;2023-10-31T02:35:16;99595.59;;;9.03;81.35
76311;BME280;65120;59.304;18.294;2023-10-31T02:37:43;99597.19;;;9.07;81.82
76311;BME280;65120;59.304;18.294;2023-10-31T02:40:12;99595.50;;;9.06;81.79
76311;BME280;65120;59.304;18.294;2023-10-31T02:42:39;99600.72;;;9.06;81.87
76311;BME280;65120;59.304;18.294;2023-10-31T02:45:07;99607.59;;;9.07;81.70
76311;BME280;65120;59.304;18.294;2023-10-31T02:47:34;99594.59;;;9.07;81.57
76311;BME280;65120;59.304;18.294;2023-10-31T02:50:01;99592.81;;;9.08;82.01
76311;BME280;65120;59.304;18.294;2023-10-31T02:52:28;99604.97;;;9.09;81.73
76311;BME280;65120;59.304;18.294;2023-10-31T02:54:55;99602.41;;;9.07;81.59
76311;BME280;65120;59.304;18.294;2023-10-31T02:57:23;99612.72;;;9.10;81.82
76311;BME280;65120;59.304;18.294;2023-10-31T02:59:50;99607.50;;;9.10;81.65
76311;BME280;65120;59.304;18.294;2023-10-31T03:02:17;99602.31;;;9.10;81.61
76311;BME280;65120;59.304;18.294;2023-10-31T03:04:44;99606.72;;;9.08;81.41
76311;BME280;65120;59.304;18.294;2023-10-31T03:07:10;99606.66;;;9.10;81.65
76311;BME280;65120;59.304;18.294;2023-10-31T03:09:37;99606.66;;;9.10;81.62
76311;BME280;65120;59.304;18.294;2023-10-31T03:12:05;99611.88;;;9.10;81.92
76311;BME280;65120;59.304;18.294;2023-10-31T03:14:33;99611.03;;;9.09;81.91
76311;BME280;65120;59.304;18.294;2023-10-31T03:17:00;99626.56;;;9.12;81.95
76311;BME280;65120;59.304;18.294;2023-10-31T03:19:27;99617.84;;;9.13;81.89
76311;BME280;65120;59.304;18.294;2023-10-31T03:21:54;99630.06;;;9.11;81.50
76311;BME280;65120;59.304;18.294;2023-10-31T03:24:20;99632.63;;;9.13;81.54
76311;BME280;65120;59.304;18.294;2023-10-31T03:26:47;99636.06;;;9.13;81.82
76311;BME280;65120;59.304;18.294;2023-10-31T03:29:14;99623.13;;;9.10;81.93
76311;BME280;65120;59.304;18.294;2023-10-31T03:31:42;99631.78;;;9.12;82.04
76311;BME280;65120;59.304;18.294;2023-10-31T03:34:09;99640.41;;;9.14;81.77
76311;BME280;65120;59.304;18.294;2023-10-31T03:36:36;99629.97;;;9.14;82.20
76311;BME280;65120;59.304;18.294;2023-10-31T03:39:03;99633.41;;;9.16;81.94
76311;BME280;65120;59.304;18.294;2023-10-31T03:41:30;99629.03;;;9.17;82.34
76311;BME280;65120;59.304;18.294;2023-10-31T03:43:57;99622.06;;;9.17;82.08
76311;BME280;65120;59.304;18.294;2023-10-31T03:46:23;99624.66;;;9.17;82.16
76311;BME280;65120;59.304;18.294;2023-10-31T03:48:52;99624.59;;;9.19;82.02
76311;BME280;65120;59.304;18.294;2023-10-31T03:51:19;99615.06;;;9.19;81.66
76311;BME280;65120;59.304;18.294;2023-10-31T03:53:45;99613.31;;;9.20;82.13
76311;BME280;65120;59.304;18.294;2023-10-31T03:56:12;99608.22;;;9.15;81.78
76311;BME280;65120;59.304;18.294;2023-10-31T03:58:40;99615.84;;;9.21;81.86
76311;BME280;65120;59.304;18.294;2023-10-31T04:01:07;99615.06;;;9.19;81.92
76311;BME280;65120;59.304;18.294;2023-10-31T04:03:34;99615.81;;;9.23;81.64
76311;BME280;65120;59.304;18.294;2023-10-31T04:06:03;99606.25;;;9.23;81.60
76311;BME280;65120;59.304;18.294;2023-10-31T04:08:30;99604.47;;;9.24;81.72
76311;BME280;65120;59.304;18.294;2023-10-31T04:10:57;99595.06;;;9.20;81.97
76311;BME280;65120;59.304;18.294;2023-10-31T04:13:24;99601.00;;;9.25;82.05
76311;BME280;65120;59.304;18.294;2023-10-31T04:15:51;99593.09;;;9.27;81.99
76311;BME280;65120;59.304;18.294;2023-10-31T04:18:18;99594.88;;;9.26;82.15
76311;BME280;65120;59.304;18.294;2023-10-31T04:20:44;99599.16;;;9.27;81.94
76311;BME280;65120;59.304;18.294;2023-10-31T04:23:13;99597.41;;;9.28;82.06
76311;BME280;65120;59.304;18.294;2023-10-31T04:25:39;99593.09;;;9.27;81.97
76311;BME280;65120;59.304;18.294;2023-10-31T04:28:06;99595.72;;;9.27;82.10
76311;BME280;65120;59.304;18.294;2023-10-31T04:30:33;99599.13;;;9.29;82.01
76311;BME280;65120;59.304;18.294;2023-10-31T04:33:00;99603.44;;;9.30;82.03
76311;BME280;65120;59.304;18.294;2023-10-31T04:35:28;99602.63;;;9.28;81.70
76311;BME280;65120;59.304;18.294;2023-10-31T04:37:54;99599.97;;;9.29;82.04
76311;BME280;65120;59.304;18.294;2023-10-31T04:40:23;99599.06;;;9.30;81.82
76311;BME280;65120;59.304;18.294;2023-10-31T04:42:50;99600.81;;;9.30;81.83
76311;BME280;65120;59.304;18.294;2023-10-31T04:45:17;99595.50;;;9.33;81.97
76311;BME280;65120;59.304;18.294;2023-10-31T04:47:44;99592.16;;;9.29;82.05
76311;BME280;65120;59.304;18.294;2023-10-31T04:50:11;99596.44;;;9.32;81.59
76311;BME280;65120;59.304;18.294;2023-10-31T04:52:37;99588.53;;;9.33;81.90
76311;BME280;65120;59.304;18.294;2023-10-31T04:55:05;99587.66;;;9.34;81.83
76311;BME280;65120;59.304;18.294;2023-10-31T04:57:33;99586.81;;;9.34;81.63
76311;BME280;65120;59.304;18.294;2023-10-31T05:00:00;99588.53;;;9.33;81.82
76311;BME280;65120;59.304;18.294;2023-10-31T05:02:28;99587.69;;;9.33;81.70
76311;BME280;65120;59.304;18.294;2023-10-31T05:04:55;99593.75;;;9.33;81.91
76311;BME280;65120;59.304;18.294;2023-10-31T05:07:23;99596.34;;;9.33;81.66
76311;BME280;65120;59.304;18.294;2023-10-31T05:09:50;99594.63;;;9.34;81.70
76311;BME280;65120;59.304;18.294;2023-10-31T05:12:17;99599.84;;;9.34;81.24
76311;BME280;65120;59.304;18.294;2023-10-31T05:14:45;99611.13;;;9.34;81.67
76311;BME280;65120;59.304;18.294;2023-10-31T05:17:12;99610.28;;;9.34;81.48
76311;BME280;65120;59.304;18.294;2023-10-31T05:19:39;99618.03;;;9.35;81.49
76311;BME280;65120;59.304;18.294;2023-10-31T05:22:06;99619.06;;;9.30;81.58
76311;BME280;65120;59.304;18.294;2023-10-31T05:24:33;99627.59;;;9.35;81.33
76311;BME280;65120;59.304;18.294;2023-10-31T05:26:59;99630.16;;;9.36;81.56
76311;BME280;65120;59.304;18.294;2023-10-31T05:29:26;99624.16;;;9.34;81.53
76311;BME280;65120;59.304;18.294;2023-10-31T05:31:55;99637.09;;;9.36;81.30
76311;BME280;65120;59.304;18.294;2023-10-31T05:34:21;99625.81;;;9.37;81.40
76311;BME280;65120;59.304;18.294;2023-10-31T05:36:48;99614.56;;;9.35;81.06
76311;BME280;65120;59.304;18.294;2023-10-31T05:39:15;99620.59;;;9.37;81.41
76311;BME280;65120;59.304;18.294;2023-10-31T05:41:42;99620.63;;;9.35;81.56
76311;BME280;65120;59.304;18.294;2023-10-31T05:44:09;99627.50;;;9.38;81.00
76311;BME280;65120;59.304;18.294;2023-10-31T05:46:37;99627.59;;;9.35;81.35
76311;BME280;65120;59.304;18.294;2023-10-31T05:49:06;99631.00;;;9.37;81.46
76311;BME280;65120;59.304;18.294;2023-10-31T05:51:33;99630.09;;;9.38;81.07
76311;BME280;65120;59.304;18.294;2023-10-31T05:54:01;99626.66;;;9.37;81.13
76311;BME280;65120;59.304;18.294;2023-10-31T05:56:28;99608.66;;;9.30;81.03
76311;BME280;65120;59.304;18.294;2023-10-31T05:58:55;99627.50;;;9.38;81.37
76311;BME280;65120;59.304;18.294;2023-10-31T06:01:22;99638.84;;;9.37;81.10
76311;BME280;65120;59.304;18.294;2023-10-31T06:03:49;99641.44;;;9.37;81.18
76311;BME280;65120;59.304;18.294;2023-10-31T06:06:17;99637.06;;;9.37;81.08
76311;BME280;65120;59.304;18.294;2023-10-31T06:08:44;99635.38;;;9.36;81.03
76311;BME280;65120;59.304;18.294;2023-10-31T06:11:11;99631.88;;;9.37;81.02
76311;BME280;65120;59.304;18.294;2023-10-31T06:13:38;99640.53;;;9.38;81.40
76311;BME280;65120;59.304;18.294;2023-10-31T06:16:09;99638.84;;;9.37;81.04
76311;BME280;65120;59.304;18.294;2023-10-31T06:18:39;99645.75;;;9.38;80.94
76311;BME280;65120;59.304;18.294;2023-10-31T06:21:06;99650.97;;;9.38;81.06
76311;BME280;65120;59.304;18.294;2023-10-31T06:23:36;99653.56;;;9.38;81.13
76311;BME280;65120;59.304;18.294;2023-10-31T06:26:03;99655.25;;;9.39;81.38
76311;BME280;65120;59.304;18.294;2023-10-31T06:28:30;99652.66;;;9.39;80.87
76311;BME280;65120;59.304;18.294;2023-10-31T06:31:00;99649.19;;;9.38;81.16
76311;BME280;65120;59.304;18.294;2023-10-31T06:33:27;99658.78;;;9.38;81.06
76311;BME280;65120;59.304;18.294;2023-10-31T06:35:54;99657.06;;;9.37;80.89
76311;BME280;65120;59.304;18.294;2023-10-31T06:38:21;99659.63;;;9.38;81.10
76311;BME280;65120;59.304;18.294;2023-10-31T06:40:49;99663.94;;;9.39;81.14
76311;BME280;65120;59.304;18.294;2023-10-31T06:43:16;99667.50;;;9.37;81.29
76311;BME280;65120;59.304;18.294;2023-10-31T06:45:43;99663.94;;;9.39;81.34
76311;BME280;65120;59.304;18.294;2023-10-31T06:48:10;99674.38;;;9.39;81.26
76311;BME280;65120;59.304;18.294;2023-10-31T06:50:37;99670.88;;;9.39;81.16
76311;BME280;65120;59.304;18.294;2023-10-31T06:53:04;99669.19;;;9.38;81.05
76311;BME280;65120;59.304;18.294;2023-10-31T06:55:30;99670.88;;;9.39;81.24
76311;BME280;65120;59.304;18.294;2023-10-31T06:57:59;99670.88;;;9.39;81.09
76311;BME280;65120;59.304;18.294;2023-10-31T07:00:27;99678.69;;;9.40;81.09
76311;BME280;65120;59.304;18.294;2023-10-31T07:02:56;99670.78;;;9.42;81.39
76311;BME280;65120;59.304;18.294;2023-10-31T07:05:24;99674.31;;;9.41;81.38
76311;BME280;65120;59.304;18.294;2023-10-31T07:07:51;99680.38;;;9.41;81.42
76311;BME280;65120;59.304;18.294;2023-10-31T07:10:18;99678.63;;;9.42;81.01
76311;BME280;65120;59.304;18.294;2023-10-31T07:12:44;99669.91;;;9.43;80.91
76311;BME280;65120;59.304;18.294;2023-10-31T07:15:13;99662.09;;;9.43;81.24
76311;BME280;65120;59.304;18.294;2023-10-31T07:17:39;99674.22;;;9.44;81.37
76311;BME280;65120;59.304;18.294;2023-10-31T07:20:07;99678.56;;;9.43;81.33
76311;BME280;65120;59.304;18.294;2023-10-31T07:22:34;99676.81;;;9.44;81.30
76311;BME280;65120;59.304;18.294;2023-10-31T07:25:01;99672.41;;;9.46;81.45
76311;BME280;65120;59.304;18.294;2023-10-31T07:27:28;99675.03;;;9.46;81.46
76311;BME280;65120;59.304;18.294;2023-10-31T07:29:55;99677.63;;;9.46;81.49
76311;BME280;65120;59.304;18.294;2023-10-31T07:32:24;99682.84;;;9.46;81.53
76311;BME280;65120;59.304;18.294;2023-10-31T07:34:51;99682.84;;;9.46;81.61
76311;BME280;65120;59.304;18.294;2023-10-31T07:37:18;99686.28;;;9.48;81.26
76311;BME280;65120;59.304;18.294;2023-10-31T07:39:45;99682.75;;;9.49;81.58
76311;BME280;65120;59.304;18.294;2023-10-31T07:42:12;99687.97;;;9.49;81.57
76311;BME280;65120;59.304;18.294;2023-10-31T07:44:39;99692.25;;;9.50;81.46
76311;BME280;65120;59.304;18.294;2023-10-31T07:47:06;99686.16;;;9.51;81.33
76311;BME280;65120;59.304;18.294;2023-10-31T07:49:34;99685.25;;;9.52;81.20
76311;BME280;65120;59.304;18.294;2023-10-31T07:52:01;99682.66;;;9.52;81.53
76311;BME280;65120;59.304;18.294;2023-10-31T07:54:28;99684.34;;;9.53;81.58
76311;BME280;65120;59.304;18.294;2023-10-31T07:56:55;99691.31;;;9.53;81.35
76311;BME280;65120;59.304;18.294;2023-10-31T07:59:22;99686.16;;;9.51;81.34
76311;BME280;65120;59.304;18.294;2023-10-31T08:01:49;99681.66;;;9.56;81.33
76311;BME280;65120;59.304;18.294;2023-10-31T08:04:17;99679.91;;;9.57;81.18
76311;BME280;65120;59.304;18.294;2023-10-31T08:06:45;99680.75;;;9.57;81.38
76311;BME280;65120;59.304;18.294;2023-10-31T08:09:12;99684.22;;;9.58;81.56
76311;BME280;65120;59.304;18.294;2023-10-31T08:11:41;99684.19;;;9.59;81.40
76311;BME280;65120;59.304;18.294;2023-10-31T08:14:08;99686.78;;;9.59;81.40
76311;BME280;65120;59.304;18.294;2023-10-31T08:16:35;99682.41;;;9.60;81.43
76311;BME280;65120;59.304;18.294;2023-10-31T08:19:02;99681.50;;;9.61;81.45
76311;BME280;65120;59.304;18.294;2023-10-31T08:21:30;99683.19;;;9.62;81.16
76311;BME280;65120;59.304;18.294;2023-10-31T08:24:02;99684.94;;;9.63;81.44
76311;BME280;65120;59.304;18.294;2023-10-31T08:26:29;99670.22;;;9.60;81.16
76311;BME280;65120;59.304;18.294;2023-10-31T08:28:56;99677.97;;;9.62;81.38
76311;BME280;65120;59.304;18.294;2023-10-31T08:31:23;99673.59;;;9.64;81.35
76311;BME280;65120;59.304;18.294;2023-10-31T08:33:50;99675.34;;;9.63;81.31
76311;BME280;65120;59.304;18.294;2023-10-31T08:36:17;99664.16;;;9.60;81.38
76311;BME280;65120;59.304;18.294;2023-10-31T08:38:44;99672.69;;;9.65;81.28
76311;BME280;65120;59.304;18.294;2023-10-31T08:41:12;99672.69;;;9.65;81.03
76311;BME280;65120;59.304;18.294;2023-10-31T08:43:45;99661.38;;;9.64;81.20
76311;BME280;65120;59.304;18.294;2023-10-31T08:46:11;99654.59;;;9.60;81.50
76311;BME280;65120;59.304;18.294;2023-10-31T08:48:38;99660.44;;;9.67;81.40
76311;BME280;65120;59.304;18.294;2023-10-31T08:51:05;99654.34;;;9.68;81.37
76311;BME280;65120;59.304;18.294;2023-10-31T08:53:32;99653.44;;;9.69;81.46
76311;BME280;65120;59.304;18.294;2023-10-31T08:55:59;99648.19;;;9.71;81.41
76311;BME280;65120;59.304;18.294;2023-10-31T08:58:27;99642.97;;;9.71;81.35
76311;BME280;65120;59.304;18.294;2023-10-31T09:00:55;99650.78;;;9.71;81.17
76311;BME280;65120;59.304;18.294;2023-10-31T09:03:22;99654.16;;;9.73;81.41
76311;BME280;65120;59.304;18.294;2023-10-31T09:05:49;99651.63;;;9.71;80.82
76311;BME280;65120;59.304;18.294;2023-10-31T09:08:18;99641.25;;;9.69;80.85
76311;BME280;65120;59.304;18.294;2023-10-31T09:10:45;99645.50;;;9.72;80.80
76311;BME280;65120;59.304;18.294;2023-10-31T09:13:12;99643.75;;;9.73;80.94
76311;BME280;65120;59.304;18.294;2023-10-31T09:15:40;99643.72;;;9.74;80.77
76311;BME280;65120;59.304;18.294;2023-10-31T09:18:07;99636.75;;;9.73;80.72
76311;BME280;65120;59.304;18.294;2023-10-31T09:20:34;99631.50;;;9.75;80.69
76311;BME280;65120;59.304;18.294;2023-10-31T09:23:03;99631.56;;;9.73;80.56
76311;BME280;65120;59.304;18.294;2023-10-31T09:25:30;99634.13;;;9.75;80.50
76311;BME280;65120;59.304;18.294;2023-10-31T09:27:57;99628.09;;;9.73;80.75
76311;BME280;65120;59.304;18.294;2023-10-31T09:30:25;99628.91;;;9.75;80.90
76311;BME280;65120;59.304;18.294;2023-10-31T09:32:53;99625.38;;;9.76;80.70
76311;BME280;65120;59.304;18.294;2023-10-31T09:35:20;99618.44;;;9.76;80.70
76311;BME280;65120;59.304;18.294;2023-10-31T09:37:47;99619.28;;;9.77;80.63
76311;BME280;65120;59.304;18.294;2023-10-31T09:40:15;99608.00;;;9.76;80.46
76311;BME280;65120;59.304;18.294;2023-10-31T09:42:43;99595.97;;;9.72;80.57
76311;BME280;65120;59.304;18.294;2023-10-31T09:45:10;99607.03;;;9.79;80.31
76311;BME280;65120;59.304;18.294;2023-10-31T09:47:37;99596.66;;;9.77;80.30
76311;BME280;65120;59.304;18.294;2023-10-31T09:50:06;99595.75;;;9.78;80.95
76311;BME280;65120;59.304;18.294;2023-10-31T09:52:35;99599.19;;;9.79;80.71
76311;BME280;65120;59.304;18.294;2023-10-31T09:55:03;99587.03;;;9.79;80.57
76311;BME280;65120;59.304;18.294;2023-10-31T09:57:30;99585.38;;;9.77;80.52
76311;BME280;65120;59.304;18.294;2023-10-31T09:59:57;99574.94;;;9.77;80.65
76311;BME280;65120;59.304;18.294;2023-10-31T10:02:24;99577.44;;;9.80;80.75
76311;BME280;65120;59.304;18.294;2023-10-31T10:04:51;99577.44;;;9.80;80.77
76311;BME280;65120;59.304;18.294;2023-10-31T10:07:19;99572.22;;;9.80;80.88
76311;BME280;65120;59.304;18.294;2023-10-31T10:09:46;99572.28;;;9.78;80.56
76311;BME280;65120;59.304;18.294;2023-10-31T10:12:15;99576.50;;;9.82;80.72
76311;BME280;65120;59.304;18.294;2023-10-31T10:14:44;99574.72;;;9.83;80.90
76311;BME280;65120;59.304;18.294;2023-10-31T10:17:15;99579.94;;;9.83;80.86
76311;BME280;65120;59.304;18.294;2023-10-31T10:19:43;99573.94;;;9.81;80.54
76311;BME280;65120;59.304;18.294;2023-10-31T10:22:09;99579.03;;;9.84;80.57
76311;BME280;65120;59.304;18.294;2023-10-31T10:24:41;99572.88;;;9.86;80.58
76311;BME280;65120;59.304;18.294;2023-10-31T10:27:10;99578.94;;;9.87;80.76
76311;BME280;65120;59.304;18.294;2023-10-31T10:29:38;99565.09;;;9.85;80.90
76311;BME280;65120;59.304;18.294;2023-10-31T10:32:07;99572.00;;;9.86;80.95
76311;BME280;65120;59.304;18.294;2023-10-31T10:34:34;99566.69;;;9.89;80.71
76311;BME280;65120;59.304;18.294;2023-10-31T10:37:04;99569.25;;;9.90;80.57
76311;BME280;65120;59.304;18.294;2023-10-31T10:39:32;99559.66;;;9.91;80.77
76311;BME280;65120;59.304;18.294;2023-10-31T10:42:09;99563.94;;;9.94;80.71
76311;BME280;65120;59.304;18.294;2023-10-31T10:44:40;99557.84;;;9.93;80.79
76311;BME280;65120;59.304;18.294;2023-10-31T10:47:12;99548.31;;;9.92;80.57
76311;BME280;65120;59.304;18.294;2023-10-31T10:49:41;99551.75;;;9.94;80.72
76311;BME280;65120;59.304;18.294;2023-10-31T10:52:18;99556.03;;;9.95;80.41
76311;BME280;65120;59.304;18.294;2023-10-31T10:54:53;99542.19;;;9.93;80.42
76311;BME280;65120;59.304;18.294;2023-10-31T10:57:28;99543.91;;;9.94;80.47
76311;BME280;65120;59.304;18.294;2023-10-31T11:00:03;99530.22;;;9.87;80.33
76311;BME280;65120;59.304;18.294;2023-10-31T11:02:32;99546.53;;;9.94;80.75
76311;BME280;65120;59.304;18.294;2023-10-31T11:04:59;99544.78;;;9.93;80.58
76311;BME280;65120;59.304;18.294;2023-10-31T11:07:27;99530.97;;;9.91;80.43
76311;BME280;65120;59.304;18.294;2023-10-31T11:09:57;99534.38;;;9.93;80.40
76311;BME280;65120;59.304;18.294;2023-10-31T11:12:29;99536.97;;;9.93;80.21
76311;BME280;65120;59.304;18.294;2023-10-31T11:14:57;99534.38;;;9.93;80.38
76311;BME280;65120;59.304;18.294;2023-10-31T11:17:27;99528.25;;;9.94;80.51
76311;BME280;65120;59.304;18.294;2023-10-31T11:19:55;99515.25;;;9.93;80.51
76311;BME280;65120;59.304;18.294;2023-10-31T11:22:22;99512.59;;;9.94;80.24
76311;BME280;65120;59.304;18.294;2023-10-31T11:24:50;99511.69;;;9.95;80.57
76311;BME280;65120;59.304;18.294;2023-10-31T11:27:18;99501.25;;;9.95;80.44
76311;BME280;65120;59.304;18.294;2023-10-31T11:29:47;99502.09;;;9.96;80.20
76311;BME280;65120;59.304;18.294;2023-10-31T11:32:14;99504.72;;;9.96;80.25
76311;BME280;65120;59.304;18.294;2023-10-31T11:34:42;99509.09;;;9.95;80.54
76311;BME280;65120;59.304;18.294;2023-10-31T11:37:22;99484.28;;;9.83;80.15
76311;BME280;65120;59.304;18.294;2023-10-31T11:40:20;99500.38;;;9.96;80.18
76311;BME280;65120;59.304;18.294;2023-10-31T11:42:48;99488.41;;;9.90;80.33
76311;BME280;65120;59.304;18.294;2023-10-31T11:45:28;99498.59;;;9.97;80.33
76311;BME280;65120;59.304;18.294;2023-10-31T11:47:55;99493.44;;;9.95;80.26
76311;BME280;65120;59.304;18.294;2023-10-31T11:50:22;99495.16;;;9.96;80.41
76311;BME280;65120;59.304;18.294;2023-10-31T11:53:03;99495.94;;;9.98;80.31
76311;BME280;65120;59.304;18.294;2023-10-31T11:55:32;99483.00;;;9.95;80.47
76311;BME280;65120;59.304;18.294;2023-10-31T11:58:12;99480.34;;;9.97;80.33
76311;BME280;65120;59.304;18.294;2023-10-31T12:00:41;99476.88;;;9.96;80.40
76311;BME280;65120;59.304;18.294;2023-10-31T12:03:08;99479.50;;;9.96;80.21
76311;BME280;65120;59.304;18.294;2023-10-31T12:05:34;99476.00;;;9.96;80.56
76311;BME280;65120;59.304;18.294;2023-10-31T12:08:01;99467.34;;;9.95;80.33
76311;BME280;65120;59.304;18.294;2023-10-31T12:10:29;99469.94;;;9.95;80.52
76311;BME280;65120;59.304;18.294;2023-10-31T12:12:57;99469.94;;;9.95;80.27
76311;BME280;65120;59.304;18.294;2023-10-31T12:15:26;99463.94;;;9.93;80.17
76311;BME280;65120;59.304;18.294;2023-10-31T12:17:58;99464.72;;;9.95;80.62
76311;BME280;65120;59.304;18.294;2023-10-31T12:20:25;99467.34;;;9.95;80.17
76311;BME280;65120;59.304;18.294;2023-10-31T12:23:02;99461.28;;;9.95;80.04
76311;BME280;65120;59.304;18.294;2023-10-31T12:25:30;99459.63;;;9.92;80.18
76311;BME280;65120;59.304;18.294;2023-10-31T12:28:00;99458.72;;;9.93;79.94
76311;BME280;65120;59.304;18.294;2023-10-31T12:30:27;99455.22;;;9.94;80.02
76311;BME280;65120;59.304;18.294;2023-10-31T12:32:55;99453.50;;;9.93;80.11
76311;BME280;65120;59.304;18.294;2023-10-31T12:35:25;99455.25;;;9.93;79.86
76311;BME280;65120;59.304;18.294;2023-10-31T12:37:53;99450.97;;;9.91;79.90
76311;BME280;65120;59.304;18.294;2023-10-31T12:40:23;99445.78;;;9.90;79.70
76311;BME280;65120;59.304;18.294;2023-10-31T12:42:52;99444.09;;;9.89;79.93
76311;BME280;65120;59.304;18.294;2023-10-31T12:45:19;99438.88;;;9.89;79.88
76311;BME280;65120;59.304;18.294;2023-10-31T12:48:00;99432.81;;;9.88;79.87
76311;BME280;65120;59.304;18.294;2023-10-31T12:50:29;99426.75;;;9.88;79.98
76311;BME280;65120;59.304;18.294;2023-10-31T12:52:57;99423.28;;;9.87;79.94
76311;BME280;65120;59.304;18.294;2023-10-31T12:55:26;99417.28;;;9.85;79.86
76311;BME280;65120;59.304;18.294;2023-10-31T12:57:54;99413.84;;;9.85;79.91
76311;BME280;65120;59.304;18.294;2023-10-31T13:00:22;99410.34;;;9.84;79.71
76311;BME280;65120;59.304;18.294;2023-10-31T13:02:52;99414.72;;;9.84;79.99